createdAt,value
2024-01-06T00:00:22.795Z,44.13
2024-01-06T00:01:25.705Z,48.50
2024-01-06T00:02:28.664Z,48.06
2024-01-06T00:03:31.709Z,44.19
2024-01-06T00:04:34.837Z,39.47
2024-01-06T00:05:37.745Z,45.69
2024-01-06T00:06:40.968Z,44.06
2024-01-06T00:07:43.826Z,42.20
2024-01-06T00:08:46.699Z,44.88
2024-01-06T00:09:49.694Z,46.63
2024-01-06T00:10:52.752Z,40.73
2024-01-06T00:11:55.644Z,49.00
2024-01-06T00:12:58.649Z,51.13
2024-01-06T00:14:01.548Z,43.38
2024-01-06T00:15:04.716Z,31.20
2024-01-06T00:16:08.170Z,47.53
2024-01-06T00:17:11.048Z,48.53
2024-01-06T00:18:14.158Z,46.06
2024-01-06T00:19:17.182Z,49.27
2024-01-06T00:20:21.112Z,39.75
2024-01-06T00:21:24.129Z,42.75
2024-01-06T00:22:27.123Z,47.44
2024-01-06T00:23:30.010Z,50.27
2024-01-06T00:24:32.931Z,50.81
2024-01-06T00:25:35.916Z,52.00
2024-01-06T00:26:38.896Z,52.25
2024-01-06T00:27:41.898Z,51.19
2024-01-06T00:28:44.735Z,53.33
2024-01-06T00:29:47.612Z,54.73
2024-01-06T00:30:50.771Z,52.67
2024-01-06T00:31:53.816Z,48.19
2024-01-06T00:32:56.874Z,53.56
2024-01-06T00:33:59.826Z,48.53
2024-01-06T00:35:02.745Z,43.19
2024-01-06T00:36:07.654Z,51.27
2024-01-06T00:37:10.661Z,44.67
2024-01-06T00:38:13.488Z,35.13
2024-01-06T00:39:16.390Z,49.81
2024-01-06T00:40:19.536Z,45.13
2024-01-06T00:41:22.403Z,46.88
2024-01-06T00:42:25.336Z,38.63
2024-01-06T00:43:28.342Z,43.93
2024-01-06T00:44:31.273Z,31.31
2024-01-06T00:45:34.185Z,35.81
2024-01-06T00:46:37.188Z,44.13
2024-01-06T00:47:40.233Z,36.13
2024-01-06T00:48:43.302Z,43.63
2024-01-06T00:49:46.389Z,37.69
2024-01-06T00:50:49.649Z,38.69
2024-01-06T00:51:52.628Z,44.38
2024-01-06T00:52:55.620Z,42.81
2024-01-06T00:53:58.618Z,40.31
2024-01-06T00:55:01.558Z,43.44
2024-01-06T00:56:04.829Z,44.07
2024-01-06T00:57:07.868Z,45.63
2024-01-06T00:58:10.740Z,45.00
2024-01-06T00:59:13.629Z,48.25
2024-01-06T01:00:17.079Z,46.73
2024-01-06T01:01:20.140Z,50.25
2024-01-06T01:02:23.039Z,53.20
2024-01-06T01:03:26.050Z,48.47
2024-01-06T01:04:29.145Z,48.94
2024-01-06T01:05:32.116Z,48.25
2024-01-06T01:06:35.200Z,48.07
2024-01-06T01:07:38.082Z,50.06
2024-01-06T01:08:40.956Z,45.56
2024-01-06T01:09:43.941Z,49.13
2024-01-06T01:10:46.873Z,32.87
2024-01-06T01:11:49.789Z,47.06
2024-01-06T01:12:52.707Z,43.60
2024-01-06T01:13:55.753Z,46.56
2024-01-06T01:14:58.688Z,42.67
2024-01-06T01:16:01.601Z,36.75
2024-01-06T01:17:04.652Z,44.40
2024-01-06T01:18:07.802Z,40.38
2024-01-06T01:19:10.879Z,31.87
2024-01-06T01:20:13.952Z,36.88
2024-01-06T01:21:16.873Z,42.06
2024-01-06T01:22:19.824Z,35.80
2024-01-06T01:23:22.712Z,41.73
2024-01-06T01:24:25.620Z,45.93
2024-01-06T01:25:30.262Z,39.63
2024-01-06T01:26:33.214Z,41.37
2024-01-06T01:27:36.206Z,41.25
2024-01-06T01:28:39.136Z,45.56
2024-01-06T01:29:42.008Z,45.75
2024-01-06T01:30:45.192Z,46.75
2024-01-06T01:31:48.398Z,37.88
2024-01-06T01:32:51.587Z,40.38
2024-01-06T01:33:54.765Z,40.33
2024-01-06T01:34:57.825Z,40.44
2024-01-06T01:36:02.905Z,35.81
2024-01-06T01:37:05.244Z,34.06
2024-01-06T01:38:08.339Z,27.60
2024-01-06T01:39:11.276Z,26.37
2024-01-06T01:40:14.743Z,26.31
2024-01-06T01:41:17.637Z,25.44
2024-01-06T01:42:20.548Z,25.19
2024-01-06T01:43:23.555Z,21.56
2024-01-06T01:44:26.467Z,25.69
2024-01-06T01:45:29.367Z,17.56
2024-01-06T01:46:32.287Z,22.00
2024-01-06T01:47:35.227Z,15.40
2024-01-06T01:48:38.219Z,16.25
2024-01-06T01:49:41.631Z,22.75
2024-01-06T01:50:44.764Z,22.44
2024-01-06T01:51:47.799Z,22.69
2024-01-06T01:52:50.714Z,20.19
2024-01-06T01:53:53.722Z,15.75
2024-01-06T01:54:56.963Z,16.31
2024-01-06T01:55:59.959Z,17.62
2024-01-06T01:57:03.448Z,22.00
2024-01-06T01:58:06.954Z,27.69
2024-01-06T01:59:13.901Z,22.06
2024-01-06T02:00:17.133Z,22.62
2024-01-06T02:01:20.825Z,25.50
2024-01-06T02:02:24.284Z,22.50
2024-01-06T02:03:27.393Z,23.94
2024-01-06T02:04:30.416Z,17.69
2024-01-06T02:05:33.568Z,15.19
2024-01-06T02:06:36.678Z,17.12
2024-01-06T02:07:39.649Z,15.13
2024-01-06T02:08:42.591Z,13.25
2024-01-06T02:09:45.637Z,15.63
2024-01-06T02:10:48.668Z,12.50
2024-01-06T02:11:51.544Z,12.50
2024-01-06T02:12:54.471Z,14.69
2024-01-06T02:13:57.406Z,16.69
2024-01-06T02:15:00.367Z,14.25
2024-01-06T02:16:07.037Z,21.69
2024-01-06T02:17:09.919Z,15.75
2024-01-06T02:18:13.215Z,21.50
2024-01-06T02:19:17.119Z,15.44
2024-01-06T02:20:21.618Z,17.44
2024-01-06T02:21:24.803Z,10.00
2024-01-06T02:22:27.674Z,16.44
2024-01-06T02:23:30.639Z,23.73
2024-01-06T02:24:33.554Z,18.75
2024-01-06T02:25:38.322Z,17.94
2024-01-06T02:26:41.566Z,21.75
2024-01-06T02:27:44.487Z,17.69
2024-01-06T02:28:47.420Z,19.31
2024-01-06T02:29:50.294Z,19.31
2024-01-06T02:30:53.431Z,18.00
2024-01-06T02:31:56.391Z,15.69
2024-01-06T02:32:59.475Z,19.56
2024-01-06T02:34:02.474Z,13.62
2024-01-06T02:35:05.487Z,15.44
2024-01-06T02:36:08.669Z,14.81
2024-01-06T02:37:11.693Z,16.19
2024-01-06T02:38:14.570Z,15.06
2024-01-06T02:39:17.466Z,13.75
2024-01-06T02:40:20.644Z,15.69
2024-01-06T02:41:23.519Z,14.00
2024-01-06T02:42:26.592Z,11.94
2024-01-06T02:43:29.806Z,13.44
2024-01-06T02:44:32.685Z,16.69
2024-01-06T02:45:35.576Z,10.38
2024-01-06T02:46:38.490Z,14.25
2024-01-06T02:47:41.539Z,13.56
2024-01-06T02:48:44.518Z,13.88
2024-01-06T02:49:47.659Z,15.00
2024-01-06T02:50:50.797Z,15.19
2024-01-06T02:51:53.715Z,13.44
2024-01-06T02:52:56.666Z,14.75
2024-01-06T02:53:59.502Z,11.00
2024-01-06T02:55:02.506Z,10.50
2024-01-06T02:56:05.759Z,11.00
2024-01-06T02:57:08.691Z,14.25
2024-01-06T02:58:11.555Z,14.63
2024-01-06T02:59:14.417Z,12.50
2024-01-06T03:00:18.128Z,14.38
2024-01-06T03:01:21.208Z,16.69
2024-01-06T03:02:24.133Z,13.56
2024-01-06T03:03:27.141Z,16.44
2024-01-06T03:04:30.238Z,11.38
2024-01-06T03:05:33.364Z,11.63
2024-01-06T03:06:36.607Z,11.50
2024-01-06T03:07:39.464Z,14.75
2024-01-06T03:08:42.326Z,10.50
2024-01-06T03:09:45.269Z,12.56
2024-01-06T03:10:48.359Z,14.87
2024-01-06T03:11:51.331Z,13.19
2024-01-06T03:12:54.197Z,9.88
2024-01-06T03:13:57.062Z,10.31
2024-01-06T03:14:59.996Z,10.13
2024-01-06T03:16:04.690Z,8.44
2024-01-06T03:17:07.613Z,9.06
2024-01-06T03:18:10.575Z,8.44
2024-01-06T03:19:13.737Z,9.69
2024-01-06T03:20:17.179Z,9.88
2024-01-06T03:21:20.781Z,9.44
2024-01-06T03:22:23.772Z,10.25
2024-01-06T03:23:26.709Z,10.88
2024-01-06T03:24:29.671Z,10.75
2024-01-06T03:25:33.595Z,10.88
2024-01-06T03:26:36.668Z,7.62
2024-01-06T03:27:39.562Z,8.00
2024-01-06T03:28:44.219Z,8.19
2024-01-06T03:29:47.110Z,10.38
2024-01-06T03:30:50.120Z,11.12
2024-01-06T03:31:53.012Z,13.00
2024-01-06T03:32:55.999Z,11.31
2024-01-06T03:33:59.045Z,11.38
2024-01-06T03:35:02.016Z,7.56
2024-01-06T03:36:08.465Z,9.31
2024-01-06T03:37:11.886Z,8.13
2024-01-06T03:38:14.776Z,9.19
2024-01-06T03:39:17.703Z,10.25
2024-01-06T03:40:21.180Z,8.88
2024-01-06T03:41:24.031Z,9.31
2024-01-06T03:42:26.931Z,10.13
2024-01-06T03:43:29.800Z,6.44
2024-01-06T03:44:32.720Z,8.38
2024-01-06T03:45:35.598Z,9.94
2024-01-06T03:46:38.931Z,11.56
2024-01-06T03:47:41.909Z,10.00
2024-01-06T03:48:44.993Z,10.38
2024-01-06T03:49:48.022Z,11.25
2024-01-06T03:50:51.069Z,8.38
2024-01-06T03:51:54.091Z,7.75
2024-01-06T03:52:57.000Z,8.31
2024-01-06T03:53:59.901Z,9.88
2024-01-06T03:55:02.786Z,8.13
2024-01-06T03:56:06.833Z,8.69
2024-01-06T03:57:09.834Z,7.81
2024-01-06T03:58:12.836Z,7.75
2024-01-06T03:59:15.727Z,11.19
2024-01-06T04:00:33.981Z,8.25
2024-01-06T04:01:35.543Z,10.88
2024-01-06T04:02:38.447Z,6.69
2024-01-06T04:03:41.623Z,10.75
2024-01-06T04:04:44.737Z,7.81
2024-01-06T04:05:47.764Z,13.25
2024-01-06T04:06:50.857Z,14.56
2024-01-06T04:07:53.791Z,11.56
2024-01-06T04:08:56.751Z,11.38
2024-01-06T04:09:59.714Z,10.56
2024-01-06T04:11:02.778Z,10.81
2024-01-06T04:12:05.755Z,10.88
2024-01-06T04:13:08.728Z,10.00
2024-01-06T04:14:11.615Z,8.75
2024-01-06T04:15:14.629Z,11.31
2024-01-06T04:16:17.893Z,12.13
2024-01-06T04:17:20.839Z,11.81
2024-01-06T04:18:23.830Z,12.00
2024-01-06T04:19:26.851Z,13.06
2024-01-06T04:20:29.939Z,12.19
2024-01-06T04:21:32.929Z,9.44
2024-01-06T04:22:35.839Z,12.69
2024-01-06T04:23:38.736Z,11.12
2024-01-06T04:24:41.645Z,11.81
2024-01-06T04:25:44.509Z,11.88
2024-01-06T04:26:48.934Z,14.38
2024-01-06T04:27:51.932Z,7.56
2024-01-06T04:28:54.884Z,9.81
2024-01-06T04:29:57.790Z,12.31
2024-01-06T04:31:00.949Z,16.00
2024-01-06T04:32:03.958Z,14.56
2024-01-06T04:33:06.907Z,12.81
2024-01-06T04:34:09.995Z,16.25
2024-01-06T04:35:12.984Z,12.69
2024-01-06T04:36:16.133Z,9.63
2024-01-06T04:37:19.015Z,9.44
2024-01-06T04:38:21.866Z,9.56
2024-01-06T04:39:24.859Z,11.31
2024-01-06T04:40:27.898Z,11.12
2024-01-06T04:41:30.840Z,12.13
2024-01-06T04:42:33.714Z,12.56
2024-01-06T04:43:36.543Z,9.75
2024-01-06T04:44:39.645Z,8.69
2024-01-06T04:45:42.573Z,10.69
2024-01-06T04:46:45.646Z,8.88
2024-01-06T04:47:48.740Z,14.81
2024-01-06T04:48:52.046Z,12.00
2024-01-06T04:49:55.170Z,9.75
2024-01-06T04:50:58.114Z,11.38
2024-01-06T04:52:00.980Z,8.44
2024-01-06T04:53:03.890Z,8.56
2024-01-06T04:54:06.917Z,8.50
2024-01-06T04:55:09.806Z,9.50
2024-01-06T04:56:13.268Z,10.06
2024-01-06T04:57:16.183Z,10.63
2024-01-06T04:58:19.036Z,10.88
2024-01-06T04:59:21.916Z,9.63
2024-01-06T05:00:24.916Z,10.63
2024-01-06T05:01:27.962Z,6.44
2024-01-06T05:02:30.979Z,8.81
2024-01-06T05:03:33.974Z,9.63
2024-01-06T05:04:36.901Z,8.50
2024-01-06T05:05:39.921Z,8.06
2024-01-06T05:06:43.132Z,9.88
2024-01-06T05:07:46.156Z,8.38
2024-01-06T05:08:49.025Z,8.69
2024-01-06T05:09:51.892Z,8.31
2024-01-06T05:10:54.803Z,8.44
2024-01-06T05:11:57.743Z,9.63
2024-01-06T05:13:00.656Z,7.50
2024-01-06T05:14:03.620Z,11.44
2024-01-06T05:15:06.667Z,9.94
2024-01-06T05:16:09.742Z,8.31
2024-01-06T05:17:12.685Z,9.50
2024-01-06T05:18:15.835Z,6.81
2024-01-06T05:19:19.113Z,9.44
2024-01-06T05:20:23.134Z,7.94
2024-01-06T05:21:26.054Z,8.56
2024-01-06T05:22:28.984Z,8.00
2024-01-06T05:23:31.863Z,6.12
2024-01-06T05:24:34.770Z,8.50
2024-01-06T05:25:37.979Z,6.25
2024-01-06T05:26:40.999Z,7.94
2024-01-06T05:27:43.972Z,5.37
2024-01-06T05:28:47.459Z,8.00
2024-01-06T05:29:50.622Z,9.75
2024-01-06T05:30:54.119Z,8.25
2024-01-06T05:31:57.075Z,7.37
2024-01-06T05:33:00.076Z,8.44
2024-01-06T05:34:03.166Z,8.00
2024-01-06T05:35:06.373Z,9.19
2024-01-06T05:36:10.734Z,6.75
2024-01-06T05:37:13.672Z,6.87
2024-01-06T05:38:16.556Z,7.62
2024-01-06T05:39:19.461Z,6.69
2024-01-06T05:40:23.293Z,7.25
2024-01-06T05:41:26.182Z,9.81
2024-01-06T05:42:29.188Z,9.69
2024-01-06T05:43:32.258Z,7.87
2024-01-06T05:44:36.623Z,7.87
2024-01-06T05:45:39.511Z,10.06
2024-01-06T05:46:43.988Z,10.06
2024-01-06T05:47:46.922Z,8.63
2024-01-06T05:48:50.026Z,7.31
2024-01-06T05:49:53.154Z,12.19
2024-01-06T05:50:56.241Z,8.56
2024-01-06T05:51:59.181Z,11.00
2024-01-06T05:53:20.615Z,12.25
2024-01-06T05:54:15.596Z,13.38
2024-01-06T05:55:18.837Z,8.00
2024-01-06T05:56:26.003Z,10.31
2024-01-06T05:57:28.934Z,9.31
2024-01-06T05:58:31.833Z,11.81
2024-01-06T05:59:34.944Z,11.56
2024-01-06T06:00:38.035Z,8.31
2024-01-06T06:01:41.114Z,10.38
2024-01-06T06:02:44.041Z,11.06
2024-01-06T06:03:48.488Z,11.06
2024-01-06T06:04:51.533Z,9.44
2024-01-06T06:05:54.528Z,5.50
2024-01-06T06:07:01.119Z,10.81
2024-01-06T06:08:02.296Z,4.69
2024-01-06T06:09:05.206Z,8.75
2024-01-06T06:10:10.884Z,10.81
2024-01-06T06:11:13.990Z,10.94
2024-01-06T06:12:17.035Z,11.88
2024-01-06T06:13:19.906Z,10.00
2024-01-06T06:14:23.717Z,11.06
2024-01-06T06:15:27.568Z,10.00
2024-01-06T06:16:30.595Z,7.75
2024-01-06T06:17:33.935Z,9.13
2024-01-06T06:18:37.118Z,9.56
2024-01-06T06:19:40.449Z,10.38
2024-01-06T06:20:43.714Z,22.56
2024-01-06T06:21:47.752Z,11.81
2024-01-06T06:22:50.877Z,12.75
2024-01-06T06:23:53.727Z,11.69
2024-01-06T06:24:57.612Z,11.38
2024-01-06T06:26:00.616Z,11.25
2024-01-06T06:27:03.472Z,8.63
2024-01-06T06:28:06.529Z,12.06
2024-01-06T06:29:09.422Z,10.06
2024-01-06T06:30:13.100Z,8.13
2024-01-06T06:31:16.189Z,17.06
2024-01-06T06:32:19.267Z,20.94
2024-01-06T06:33:22.268Z,13.62
2024-01-06T06:34:25.419Z,9.19
2024-01-06T06:35:28.403Z,11.81
2024-01-06T06:36:31.536Z,10.56
2024-01-06T06:37:34.492Z,12.69
2024-01-06T06:38:37.368Z,11.25
2024-01-06T06:39:40.332Z,9.94
2024-01-06T06:40:43.271Z,12.19
2024-01-06T06:41:46.158Z,10.56
2024-01-06T06:42:49.105Z,11.44
2024-01-06T06:43:52.029Z,14.00
2024-01-06T06:44:54.892Z,10.44
2024-01-06T06:46:06.812Z,10.00
2024-01-06T06:47:09.780Z,13.31
2024-01-06T06:48:12.673Z,7.87
2024-01-06T06:49:15.626Z,9.19
2024-01-06T06:50:19.721Z,10.88
2024-01-06T06:51:22.579Z,11.81
2024-01-06T06:52:25.483Z,8.94
2024-01-06T06:53:28.365Z,10.75
2024-01-06T06:54:39.199Z,11.25
2024-01-06T06:55:42.266Z,10.56
2024-01-06T06:56:45.596Z,10.44
2024-01-06T06:57:48.588Z,10.56
2024-01-06T06:58:51.552Z,11.19
2024-01-06T06:59:54.428Z,9.94
2024-01-06T07:00:57.514Z,11.63
2024-01-06T07:02:00.587Z,10.56
2024-01-06T07:03:03.547Z,14.00
2024-01-06T07:04:06.720Z,10.06
2024-01-06T07:05:09.718Z,13.00
2024-01-06T07:06:13.989Z,13.87
2024-01-06T07:07:16.918Z,8.94
2024-01-06T07:08:19.804Z,14.38
2024-01-06T07:09:23.668Z,13.56
2024-01-06T07:10:27.312Z,9.94
2024-01-06T07:11:30.176Z,9.31
2024-01-06T07:12:33.227Z,9.94
2024-01-06T07:13:40.202Z,10.25
2024-01-06T07:14:43.108Z,8.31
2024-01-06T07:15:46.001Z,10.06
2024-01-06T07:16:48.961Z,10.88
2024-01-06T07:17:51.949Z,13.50
2024-01-06T07:18:55.355Z,13.69
2024-01-06T07:19:58.467Z,12.00
2024-01-06T07:21:01.556Z,17.31
2024-01-06T07:22:07.198Z,13.69
2024-01-06T07:23:09.075Z,16.50
2024-01-06T07:24:12.419Z,12.63
2024-01-06T07:25:15.385Z,14.06
2024-01-06T07:26:18.932Z,14.69
2024-01-06T07:27:22.119Z,15.44
2024-01-06T07:28:25.339Z,20.19
2024-01-06T07:29:28.515Z,15.31
2024-01-06T07:30:39.458Z,12.56
2024-01-06T07:31:42.687Z,15.25
2024-01-06T07:32:46.072Z,15.13
2024-01-06T07:33:51.654Z,18.31
2024-01-06T07:34:56.906Z,17.25
2024-01-06T07:36:14.950Z,14.56
2024-01-06T07:37:18.382Z,15.69
2024-01-06T07:38:21.566Z,14.56
2024-01-06T07:39:25.398Z,20.69
2024-01-06T07:40:31.963Z,16.69
2024-01-06T07:41:40.569Z,18.31
2024-01-06T07:42:44.432Z,19.12
2024-01-06T07:43:47.633Z,17.37
2024-01-06T07:44:58.102Z,16.19
2024-01-06T07:46:01.774Z,25.06
2024-01-06T07:47:04.757Z,22.13
2024-01-06T07:48:07.828Z,23.56
2024-01-06T07:49:11.097Z,23.87
2024-01-06T07:50:14.386Z,20.94
2024-01-06T07:51:17.285Z,18.31
2024-01-06T07:52:20.282Z,15.38
2024-01-06T07:53:23.166Z,16.81
2024-01-06T07:54:26.075Z,15.25
2024-01-06T07:55:29.914Z,27.13
2024-01-06T07:56:32.978Z,24.37
2024-01-06T07:57:36.072Z,23.06
2024-01-06T07:58:38.958Z,22.94
2024-01-06T07:59:41.868Z,27.25
2024-01-06T08:00:45.089Z,19.67
2024-01-06T08:01:48.315Z,23.81
2024-01-06T08:02:51.192Z,18.50
2024-01-06T08:03:54.207Z,20.25
2024-01-06T08:04:57.443Z,18.75
2024-01-06T08:06:00.668Z,21.25
2024-01-06T08:07:03.872Z,12.63
2024-01-06T08:08:06.853Z,21.62
2024-01-06T08:09:09.745Z,18.00
2024-01-06T08:10:12.936Z,22.40
2024-01-06T08:11:15.863Z,17.31
2024-01-06T08:12:18.830Z,21.62
2024-01-06T08:13:21.919Z,20.00
2024-01-06T08:14:24.895Z,23.31
2024-01-06T08:15:27.851Z,15.13
2024-01-06T08:16:30.863Z,18.31
2024-01-06T08:17:33.737Z,18.31
2024-01-06T08:18:36.754Z,11.75
2024-01-06T08:19:39.853Z,14.87
2024-01-06T08:20:43.006Z,13.19
2024-01-06T08:21:45.960Z,14.19
2024-01-06T08:22:48.872Z,10.75
2024-01-06T08:23:51.723Z,12.69
2024-01-06T08:24:54.672Z,15.44
2024-01-06T08:25:58.097Z,13.62
2024-01-06T08:27:01.198Z,16.75
2024-01-06T08:28:04.264Z,19.44
2024-01-06T08:29:07.306Z,18.50
2024-01-06T08:30:10.981Z,20.37
2024-01-06T08:31:14.201Z,15.94
2024-01-06T08:32:17.249Z,20.81
2024-01-06T08:33:20.380Z,19.94
2024-01-06T08:34:23.536Z,26.69
2024-01-06T08:35:26.431Z,10.40
2024-01-06T08:36:29.433Z,18.75
2024-01-06T08:37:32.457Z,18.00
2024-01-06T08:38:35.424Z,14.94
2024-01-06T08:39:38.382Z,17.25
2024-01-06T08:40:44.190Z,14.44
2024-01-06T08:41:47.137Z,16.37
2024-01-06T08:42:51.506Z,17.56
2024-01-06T08:43:55.948Z,16.31
2024-01-06T08:44:58.983Z,20.75
2024-01-06T08:46:04.924Z,18.81
2024-01-06T08:47:07.820Z,24.75
2024-01-06T08:48:10.831Z,20.12
2024-01-06T08:49:13.908Z,16.00
2024-01-06T08:50:18.104Z,20.37
2024-01-06T08:51:22.384Z,20.62
2024-01-06T08:52:27.694Z,17.50
2024-01-06T08:53:30.606Z,16.31
2024-01-06T08:54:36.633Z,16.25
2024-01-06T08:55:39.638Z,20.00
2024-01-06T08:56:44.127Z,21.62
2024-01-06T08:57:47.146Z,24.12
2024-01-06T08:58:51.528Z,22.81
2024-01-06T08:59:57.249Z,25.31
2024-01-06T09:01:00.447Z,22.62
2024-01-06T09:02:03.540Z,20.12
2024-01-06T09:03:07.957Z,21.44
2024-01-06T09:04:10.962Z,22.69
2024-01-06T09:05:14.346Z,23.87
2024-01-06T09:06:18.230Z,19.81
2024-01-06T09:07:23.639Z,24.81
2024-01-06T09:08:28.115Z,21.69
2024-01-06T09:09:31.262Z,28.19
2024-01-06T09:10:37.264Z,30.31
2024-01-06T09:11:40.129Z,23.44
2024-01-06T09:12:43.047Z,18.31
2024-01-06T09:13:46.148Z,17.94
2024-01-06T09:14:50.222Z,19.81
2024-01-06T09:15:53.221Z,22.56
2024-01-06T09:16:56.243Z,21.00
2024-01-06T09:18:00.931Z,23.87
2024-01-06T09:19:04.411Z,23.12
2024-01-06T09:20:08.373Z,22.25
2024-01-06T09:21:11.283Z,22.00
2024-01-06T09:22:14.138Z,24.94
2024-01-06T09:23:17.363Z,24.56
2024-01-06T09:24:20.488Z,20.37
2024-01-06T09:25:25.188Z,22.50
2024-01-06T09:26:28.233Z,19.69
2024-01-06T09:27:31.185Z,11.00
2024-01-06T09:28:34.111Z,22.44
2024-01-06T09:29:37.354Z,34.50
2024-01-06T09:30:40.462Z,22.50
2024-01-06T09:31:45.095Z,52.50
2024-01-06T09:32:50.461Z,26.37
2024-01-06T09:33:53.502Z,39.07
2024-01-06T09:34:57.545Z,38.07
2024-01-06T09:36:00.750Z,54.13
2024-01-06T09:37:03.827Z,30.88
2024-01-06T09:38:06.759Z,32.31
2024-01-06T09:39:16.069Z,32.44
2024-01-06T09:40:17.700Z,36.94
2024-01-06T09:41:20.763Z,28.19
2024-01-06T09:42:23.733Z,32.00
2024-01-06T09:43:26.714Z,35.94
2024-01-06T09:44:29.730Z,38.81
2024-01-06T09:45:32.796Z,29.69
2024-01-06T09:46:35.899Z,17.25
2024-01-06T09:47:40.571Z,23.50
2024-01-06T09:48:44.530Z,23.19
2024-01-06T09:49:49.239Z,31.25
2024-01-06T09:50:53.699Z,38.13
2024-01-06T09:51:58.103Z,32.06
2024-01-06T09:53:01.331Z,21.94
2024-01-06T09:54:05.647Z,25.44
2024-01-06T09:55:10.064Z,24.25
2024-01-06T09:56:14.986Z,25.12
2024-01-06T09:57:18.229Z,29.69
2024-01-06T09:58:21.171Z,25.00
2024-01-06T09:59:24.605Z,27.81
2024-01-06T10:00:28.061Z,25.75
2024-01-06T10:01:31.157Z,20.75
2024-01-06T10:02:34.137Z,24.27
2024-01-06T10:03:37.650Z,26.37
2024-01-06T10:04:40.839Z,26.31
2024-01-06T10:05:43.918Z,28.19
2024-01-06T10:06:47.092Z,24.75
2024-01-06T10:07:50.427Z,25.75
2024-01-06T10:08:53.951Z,26.12
2024-01-06T10:09:57.033Z,26.62
2024-01-06T10:11:01.280Z,25.50
2024-01-06T10:12:04.330Z,24.37
2024-01-06T10:13:07.794Z,27.94
2024-01-06T10:14:10.727Z,25.25
2024-01-06T10:15:13.805Z,20.81
2024-01-06T10:16:18.240Z,20.50
2024-01-06T10:17:21.146Z,18.44
2024-01-06T10:18:25.649Z,19.69
2024-01-06T10:19:28.867Z,22.62
2024-01-06T10:20:31.935Z,29.00
2024-01-06T10:21:34.918Z,31.27
2024-01-06T10:22:38.446Z,26.75
2024-01-06T10:23:41.341Z,30.67
2024-01-06T10:24:44.280Z,30.31
2024-01-06T10:25:47.371Z,31.19
2024-01-06T10:26:50.359Z,29.50
2024-01-06T10:27:54.124Z,30.93
2024-01-06T10:28:57.061Z,41.20
2024-01-06T10:29:59.987Z,35.94
2024-01-06T10:31:03.118Z,29.56
2024-01-06T10:32:06.401Z,21.69
2024-01-06T10:33:10.403Z,22.81
2024-01-06T10:34:14.877Z,30.06
2024-01-06T10:35:18.635Z,44.06
2024-01-06T10:36:23.468Z,36.87
2024-01-06T10:37:26.667Z,26.56
2024-01-06T10:38:30.239Z,24.00
2024-01-06T10:39:34.841Z,31.56
2024-01-06T10:40:37.896Z,34.25
2024-01-06T10:41:42.214Z,32.44
2024-01-06T10:42:45.777Z,38.75
2024-01-06T10:43:49.257Z,38.38
2024-01-06T10:44:52.149Z,50.50
2024-01-06T10:45:55.209Z,30.75
2024-01-06T10:46:58.959Z,33.13
2024-01-06T10:48:02.914Z,26.00
2024-01-06T10:49:06.470Z,25.00
2024-01-06T10:50:10.249Z,23.80
2024-01-06T10:51:14.276Z,22.67
2024-01-06T10:52:17.419Z,32.87
2024-01-06T10:53:21.679Z,28.94
2024-01-06T10:54:26.185Z,28.07
2024-01-06T10:55:31.114Z,27.37
2024-01-06T10:56:40.015Z,35.19
2024-01-06T10:57:44.372Z,24.75
2024-01-06T10:58:48.327Z,26.00
2024-01-06T10:59:52.381Z,38.38
2024-01-06T11:00:57.045Z,39.53
2024-01-06T11:02:00.419Z,27.07
2024-01-06T11:03:03.668Z,26.53
2024-01-06T11:04:06.769Z,35.06
2024-01-06T11:05:09.893Z,24.94
2024-01-06T11:06:13.601Z,24.75
2024-01-06T11:07:17.609Z,28.94
2024-01-06T11:08:21.959Z,28.69
2024-01-06T11:09:26.439Z,28.25
2024-01-06T11:10:30.005Z,42.25
2024-01-06T11:11:33.289Z,52.69
2024-01-06T11:12:36.250Z,40.81
2024-01-06T11:13:39.363Z,30.19
2024-01-06T11:14:42.364Z,29.56
2024-01-06T11:15:46.246Z,28.38
2024-01-06T11:16:49.420Z,27.31
2024-01-06T11:17:53.878Z,28.80
2024-01-06T11:18:56.899Z,27.94
2024-01-06T11:20:01.464Z,35.87
2024-01-06T11:21:05.851Z,27.06
2024-01-06T11:22:26.408Z,25.81
2024-01-06T11:23:29.365Z,26.37
2024-01-06T11:24:33.659Z,26.69
2024-01-06T11:25:36.938Z,25.06
2024-01-06T11:26:40.488Z,30.19
2024-01-06T11:27:44.609Z,31.50
2024-01-06T11:28:48.863Z,25.19
2024-01-06T11:29:54.646Z,26.12
2024-01-06T11:31:08.356Z,30.12
2024-01-06T11:32:18.981Z,33.75
2024-01-06T11:33:22.160Z,35.06
2024-01-06T11:34:25.574Z,30.69
2024-01-06T11:35:29.161Z,33.69
2024-01-06T11:36:32.507Z,29.31
2024-01-06T11:37:36.825Z,30.00
2024-01-06T11:38:40.195Z,31.94
2024-01-06T11:39:43.194Z,28.19
2024-01-06T11:40:46.509Z,29.44
2024-01-06T11:41:50.434Z,33.31
2024-01-06T11:43:00.611Z,33.88
2024-01-06T11:44:03.542Z,34.69
2024-01-06T11:45:10.020Z,28.12
2024-01-06T11:46:13.671Z,30.88
2024-01-06T11:47:18.398Z,30.47
2024-01-06T11:48:25.835Z,28.25
2024-01-06T11:49:28.871Z,28.25
2024-01-06T11:50:35.817Z,37.63
2024-01-06T11:51:39.062Z,29.56
2024-01-06T11:52:42.610Z,40.33
2024-01-06T11:53:45.603Z,47.88
2024-01-06T11:54:48.961Z,55.67
2024-01-06T11:55:51.911Z,57.56
2024-01-06T11:56:54.901Z,79.73
2024-01-06T11:57:57.927Z,54.44
2024-01-06T11:59:01.194Z,51.69
2024-01-06T12:00:04.365Z,27.00
2024-01-06T12:01:07.383Z,28.94
2024-01-06T12:02:11.755Z,23.80
2024-01-06T12:03:16.091Z,36.75
2024-01-06T12:04:19.150Z,31.00
2024-01-06T12:05:22.124Z,39.13
2024-01-06T12:06:25.246Z,25.50
2024-01-06T12:07:28.314Z,26.06
2024-01-06T12:08:31.365Z,33.31
2024-01-06T12:09:34.332Z,59.50
2024-01-06T12:10:37.476Z,31.87
2024-01-06T12:11:40.466Z,27.81
2024-01-06T12:12:43.363Z,23.69
2024-01-06T12:13:46.349Z,24.44
2024-01-06T12:14:49.281Z,28.81
2024-01-06T12:15:52.276Z,21.50
2024-01-06T12:16:55.368Z,24.81
2024-01-06T12:17:58.879Z,45.50
2024-01-06T12:19:02.184Z,36.94
2024-01-06T12:20:06.566Z,31.67
2024-01-06T12:21:09.513Z,18.37
2024-01-06T12:22:13.299Z,25.19
2024-01-06T12:23:17.676Z,37.94
2024-01-06T12:24:21.067Z,32.13
2024-01-06T12:25:26.689Z,25.69
2024-01-06T12:26:30.254Z,23.38
2024-01-06T12:27:33.292Z,23.87
2024-01-06T12:28:43.573Z,19.69
2024-01-06T12:29:48.609Z,26.94
2024-01-06T12:30:56.977Z,27.37
2024-01-06T12:32:03.104Z,20.33
2024-01-06T12:33:06.280Z,26.87
2024-01-06T12:34:09.485Z,25.56
2024-01-06T12:35:12.779Z,28.12
2024-01-06T12:36:24.343Z,24.69
2024-01-06T12:37:20.886Z,25.06
2024-01-06T12:38:26.228Z,18.60
2024-01-06T12:39:30.006Z,27.69
2024-01-06T12:40:33.034Z,25.37
2024-01-06T12:41:37.538Z,21.87
2024-01-06T12:42:40.460Z,29.13
2024-01-06T12:43:43.537Z,26.25
2024-01-06T12:44:46.461Z,26.62
2024-01-06T12:45:50.197Z,30.00
2024-01-06T12:46:53.298Z,32.67
2024-01-06T12:47:56.393Z,26.06
2024-01-06T12:48:59.717Z,32.44
2024-01-06T12:50:03.266Z,31.12
2024-01-06T12:51:06.422Z,26.19
2024-01-06T12:52:09.531Z,21.37
2024-01-06T12:53:12.469Z,20.88
2024-01-06T12:54:15.510Z,28.69
2024-01-06T12:55:20.297Z,25.94
2024-01-06T12:56:23.524Z,20.67
2024-01-06T12:57:26.628Z,29.31
2024-01-06T12:58:29.554Z,12.19
2024-01-06T12:59:32.960Z,29.93
2024-01-06T13:00:37.363Z,27.31
2024-01-06T13:01:40.905Z,28.87
2024-01-06T13:02:44.271Z,25.56
2024-01-06T13:03:47.473Z,25.69
2024-01-06T13:04:50.669Z,22.87
2024-01-06T13:05:53.821Z,21.00
2024-01-06T13:06:58.989Z,28.00
2024-01-06T13:08:01.507Z,25.56
2024-01-06T13:09:04.478Z,26.56
2024-01-06T13:10:07.863Z,22.75
2024-01-06T13:11:11.499Z,27.25
2024-01-06T13:12:14.545Z,24.06
2024-01-06T13:13:17.654Z,28.31
2024-01-06T13:14:20.600Z,22.87
2024-01-06T13:15:23.707Z,28.44
2024-01-06T13:16:26.838Z,27.56
2024-01-06T13:17:29.921Z,28.25
2024-01-06T13:18:33.132Z,23.25
2024-01-06T13:19:36.423Z,24.19
2024-01-06T13:20:39.795Z,26.00
2024-01-06T13:21:42.813Z,28.94
2024-01-06T13:22:45.871Z,27.75
2024-01-06T13:23:48.896Z,26.37
2024-01-06T13:24:54.213Z,29.25
2024-01-06T13:25:56.492Z,28.25
2024-01-06T13:26:59.805Z,27.50
2024-01-06T13:28:03.068Z,20.00
2024-01-06T13:29:06.135Z,19.25
2024-01-06T13:30:10.428Z,39.63
2024-01-06T13:31:13.600Z,32.40
2024-01-06T13:32:16.742Z,38.27
2024-01-06T13:33:19.880Z,40.56
2024-01-06T13:34:23.018Z,36.69
2024-01-06T13:35:26.547Z,33.69
2024-01-06T13:36:29.610Z,39.13
2024-01-06T13:37:33.140Z,37.13
2024-01-06T13:38:36.057Z,34.94
2024-01-06T13:39:39.115Z,37.06
2024-01-06T13:40:42.378Z,36.63
2024-01-06T13:41:45.361Z,33.00